sensor_id;sensor_type;location;lat;lon;timestamp;P1;durP1;ratioP1;P2;durP2;ratioP2
3527;SDS011;1778;47.966;7.854;2022-12-17T00:00:51;4.10;;;3.80;;
3527;SDS011;1778;47.966;7.854;2022-12-17T00:02:11;3.60;;;3.05;;
3527;SDS011;1778;47.966;7.854;2022-12-17T00:03:32;5.68;;;4.75;;
3527;SDS011;1778;47.966;7.854;2022-12-17T00:04:56;4.72;;;3.88;;
3527;SDS011;1778;47.966;7.854;2022-12-17T00:06:17;3.17;;;3.00;;
3527;SDS011;1778;47.966;7.854;2022-12-17T00:07:37;3.67;;;3.38;;
3527;SDS011;1778;47.966;7.854;2022-12-17T00:08:57;3.13;;;2.92;;
3527;SDS011;1778;47.966;7.854;2022-12-17T00:10:17;4.32;;;3.70;;
3527;SDS011;1778;47.966;7.854;2022-12-17T00:11:49;6.93;;;3.30;;
3527;SDS011;1778;47.966;7.854;2022-12-17T00:13:16;3.30;;;3.00;;
3527;SDS011;1778;47.966;7.854;2022-12-17T00:14:40;3.67;;;3.38;;
3527;SDS011;1778;47.966;7.854;2022-12-17T00:16:00;3.05;;;2.95;;
3527;SDS011;1778;47.966;7.854;2022-12-17T00:17:20;4.10;;;3.55;;
3527;SDS011;1778;47.966;7.854;2022-12-17T00:18:40;4.40;;;3.00;;
3527;SDS011;1778;47.966;7.854;2022-12-17T00:20:01;4.05;;;3.67;;
3527;SDS011;1778;47.966;7.854;2022-12-17T00:21:21;3.22;;;2.92;;
3527;SDS011;1778;47.966;7.854;2022-12-17T00:22:42;6.82;;;5.57;;
3527;SDS011;1778;47.966;7.854;2022-12-17T00:24:02;2.53;;;2.15;;
3527;SDS011;1778;47.966;7.854;2022-12-17T00:25:22;7.13;;;3.28;;
3527;SDS011;1778;47.966;7.854;2022-12-17T00:26:44;4.55;;;3.00;;
3527;SDS011;1778;47.966;7.854;2022-12-17T00:28:09;2.60;;;2.28;;
3527;SDS011;1778;47.966;7.854;2022-12-17T00:29:30;2.47;;;2.35;;
3527;SDS011;1778;47.966;7.854;2022-12-17T00:30:51;5.78;;;3.58;;
3527;SDS011;1778;47.966;7.854;2022-12-17T00:32:12;2.47;;;2.38;;
3527;SDS011;1778;47.966;7.854;2022-12-17T00:33:32;4.07;;;3.35;;
3527;SDS011;1778;47.966;7.854;2022-12-17T00:34:53;2.65;;;2.55;;
3527;SDS011;1778;47.966;7.854;2022-12-17T00:36:13;2.40;;;2.30;;
3527;SDS011;1778;47.966;7.854;2022-12-17T00:37:36;5.68;;;2.58;;
3527;SDS011;1778;47.966;7.854;2022-12-17T00:38:56;2.55;;;2.35;;
3527;SDS011;1778;47.966;7.854;2022-12-17T00:40:16;2.65;;;2.50;;
3527;SDS011;1778;47.966;7.854;2022-12-17T00:41:37;3.33;;;3.13;;
3527;SDS011;1778;47.966;7.854;2022-12-17T00:43:04;3.28;;;3.08;;
3527;SDS011;1778;47.966;7.854;2022-12-17T00:44:28;2.42;;;2.22;;
3527;SDS011;1778;47.966;7.854;2022-12-17T00:45:49;4.97;;;3.53;;
3527;SDS011;1778;47.966;7.854;2022-12-17T00:47:10;2.97;;;2.75;;
3527;SDS011;1778;47.966;7.854;2022-12-17T00:48:30;3.00;;;2.47;;
3527;SDS011;1778;47.966;7.854;2022-12-17T00:49:51;3.47;;;3.03;;
3527;SDS011;1778;47.966;7.854;2022-12-17T00:51:12;2.30;;;2.20;;
3527;SDS011;1778;47.966;7.854;2022-12-17T00:52:32;2.65;;;2.40;;
3527;SDS011;1778;47.966;7.854;2022-12-17T00:53:56;4.25;;;3.20;;
3527;SDS011;1778;47.966;7.854;2022-12-17T00:55:16;3.00;;;2.78;;
3527;SDS011;1778;47.966;7.854;2022-12-17T00:56:37;5.28;;;2.92;;
3527;SDS011;1778;47.966;7.854;2022-12-17T00:57:57;6.82;;;3.10;;
3527;SDS011;1778;47.966;7.854;2022-12-17T00:59:17;4.20;;;3.78;;
3527;SDS011;1778;47.966;7.854;2022-12-17T01:00:38;3.85;;;3.47;;
3527;SDS011;1778;47.966;7.854;2022-12-17T01:01:58;10.02;;;2.80;;
3527;SDS011;1778;47.966;7.854;2022-12-17T01:03:19;2.55;;;2.40;;
3527;SDS011;1778;47.966;7.854;2022-12-17T01:04:40;2.58;;;2.38;;
3527;SDS011;1778;47.966;7.854;2022-12-17T01:06:00;3.10;;;2.80;;
3527;SDS011;1778;47.966;7.854;2022-12-17T01:07:21;2.65;;;2.53;;
3527;SDS011;1778;47.966;7.854;2022-12-17T01:08:42;6.50;;;2.88;;
3527;SDS011;1778;47.966;7.854;2022-12-17T01:10:03;3.92;;;2.67;;
3527;SDS011;1778;47.966;7.854;2022-12-17T01:11:23;2.70;;;2.60;;
3527;SDS011;1778;47.966;7.854;2022-12-17T01:12:44;5.55;;;2.90;;
3527;SDS011;1778;47.966;7.854;2022-12-17T01:14:05;4.45;;;3.42;;
3527;SDS011;1778;47.966;7.854;2022-12-17T01:15:26;7.60;;;3.33;;
3527;SDS011;1778;47.966;7.854;2022-12-17T01:16:47;3.47;;;3.17;;
3527;SDS011;1778;47.966;7.854;2022-12-17T01:18:07;3.97;;;3.63;;
3527;SDS011;1778;47.966;7.854;2022-12-17T01:19:28;2.50;;;2.42;;
3527;SDS011;1778;47.966;7.854;2022-12-17T01:20:54;4.00;;;3.80;;
3527;SDS011;1778;47.966;7.854;2022-12-17T01:22:15;3.25;;;3.05;;
3527;SDS011;1778;47.966;7.854;2022-12-17T01:23:35;3.50;;;2.20;;
3527;SDS011;1778;47.966;7.854;2022-12-17T01:24:56;3.20;;;2.95;;
3527;SDS011;1778;47.966;7.854;2022-12-17T01:26:17;4.05;;;3.08;;
3527;SDS011;1778;47.966;7.854;2022-12-17T01:27:36;2.47;;;2.30;;
3527;SDS011;1778;47.966;7.854;2022-12-17T01:28:57;2.97;;;2.63;;
3527;SDS011;1778;47.966;7.854;2022-12-17T01:30:22;2.97;;;2.08;;
3527;SDS011;1778;47.966;7.854;2022-12-17T01:31:44;5.63;;;2.33;;
3527;SDS011;1778;47.966;7.854;2022-12-17T01:33:05;2.65;;;2.55;;
3527;SDS011;1778;47.966;7.854;2022-12-17T01:34:26;4.20;;;2.85;;
3527;SDS011;1778;47.966;7.854;2022-12-17T01:35:54;4.05;;;2.65;;
3527;SDS011;1778;47.966;7.854;2022-12-17T01:37:15;2.90;;;2.80;;
3527;SDS011;1778;47.966;7.854;2022-12-17T01:38:35;3.25;;;3.15;;
3527;SDS011;1778;47.966;7.854;2022-12-17T01:39:57;2.67;;;2.58;;
3527;SDS011;1778;47.966;7.854;2022-12-17T01:41:18;4.07;;;3.67;;
3527;SDS011;1778;47.966;7.854;2022-12-17T01:42:39;4.93;;;3.10;;
3527;SDS011;1778;47.966;7.854;2022-12-17T01:45:55;3.58;;;3.38;;
3527;SDS011;1778;47.966;7.854;2022-12-17T01:47:16;3.25;;;3.05;;
3527;SDS011;1778;47.966;7.854;2022-12-17T01:48:40;2.90;;;2.70;;
3527;SDS011;1778;47.966;7.854;2022-12-17T01:50:03;3.60;;;2.50;;
3527;SDS011;1778;47.966;7.854;2022-12-17T01:51:23;2.58;;;2.33;;
3527;SDS011;1778;47.966;7.854;2022-12-17T01:52:44;3.30;;;2.97;;
3527;SDS011;1778;47.966;7.854;2022-12-17T01:54:05;2.20;;;2.05;;
3527;SDS011;1778;47.966;7.854;2022-12-17T01:55:27;2.30;;;2.10;;
3527;SDS011;1778;47.966;7.854;2022-12-17T01:56:47;2.90;;;2.70;;
3527;SDS011;1778;47.966;7.854;2022-12-17T01:58:08;2.72;;;2.15;;
3527;SDS011;1778;47.966;7.854;2022-12-17T01:59:38;2.88;;;2.47;;
3527;SDS011;1778;47.966;7.854;2022-12-17T02:01:15;2.70;;;2.20;;
3527;SDS011;1778;47.966;7.854;2022-12-17T02:02:36;2.63;;;2.53;;
3527;SDS011;1778;47.966;7.854;2022-12-17T02:03:56;1.95;;;1.90;;
3527;SDS011;1778;47.966;7.854;2022-12-17T02:05:17;2.10;;;2.00;;
3527;SDS011;1778;47.966;7.854;2022-12-17T02:06:43;2.47;;;2.22;;
3527;SDS011;1778;47.966;7.854;2022-12-17T02:08:20;2.22;;;2.13;;
3527;SDS011;1778;47.966;7.854;2022-12-17T02:09:46;2.97;;;2.30;;
3527;SDS011;1778;47.966;7.854;2022-12-17T02:13:29;2.03;;;2.03;;
3527;SDS011;1778;47.966;7.854;2022-12-17T02:17:06;2.22;;;2.20;;
3527;SDS011;1778;47.966;7.854;2022-12-17T02:18:52;2.72;;;2.63;;
3527;SDS011;1778;47.966;7.854;2022-12-17T02:20:29;2.58;;;2.40;;
3527;SDS011;1778;47.966;7.854;2022-12-17T02:21:56;2.58;;;2.47;;
3527;SDS011;1778;47.966;7.854;2022-12-17T02:23:34;2.67;;;2.58;;
3527;SDS011;1778;47.966;7.854;2022-12-17T02:25:02;2.22;;;2.13;;
3527;SDS011;1778;47.966;7.854;2022-12-17T02:26:46;4.43;;;3.05;;
3527;SDS011;1778;47.966;7.854;2022-12-17T02:28:10;2.10;;;2.00;;
3527;SDS011;1778;47.966;7.854;2022-12-17T02:29:33;2.28;;;2.17;;
3527;SDS011;1778;47.966;7.854;2022-12-17T02:30:56;2.70;;;2.50;;
3527;SDS011;1778;47.966;7.854;2022-12-17T02:32:17;2.08;;;2.05;;
3527;SDS011;1778;47.966;7.854;2022-12-17T02:33:38;2.72;;;2.63;;
3527;SDS011;1778;47.966;7.854;2022-12-17T02:34:59;2.05;;;1.95;;
3527;SDS011;1778;47.966;7.854;2022-12-17T02:36:20;2.25;;;2.15;;
3527;SDS011;1778;47.966;7.854;2022-12-17T02:37:47;2.00;;;1.95;;
3527;SDS011;1778;47.966;7.854;2022-12-17T02:39:08;2.13;;;2.13;;
3527;SDS011;1778;47.966;7.854;2022-12-17T02:40:29;2.40;;;2.30;;
3527;SDS011;1778;47.966;7.854;2022-12-17T02:41:51;2.08;;;1.98;;
3527;SDS011;1778;47.966;7.854;2022-12-17T02:43:14;1.55;;;1.55;;
3527;SDS011;1778;47.966;7.854;2022-12-17T02:44:36;2.05;;;2.05;;
3527;SDS011;1778;47.966;7.854;2022-12-17T02:45:57;2.08;;;1.98;;
3527;SDS011;1778;47.966;7.854;2022-12-17T02:47:17;1.95;;;1.95;;
3527;SDS011;1778;47.966;7.854;2022-12-17T02:48:40;2.50;;;2.50;;
3527;SDS011;1778;47.966;7.854;2022-12-17T02:50:04;1.95;;;1.95;;
3527;SDS011;1778;47.966;7.854;2022-12-17T02:51:25;2.13;;;2.03;;
3527;SDS011;1778;47.966;7.854;2022-12-17T02:52:46;2.40;;;2.30;;
3527;SDS011;1778;47.966;7.854;2022-12-17T02:54:07;2.53;;;2.33;;
3527;SDS011;1778;47.966;7.854;2022-12-17T02:55:27;2.38;;;2.28;;
3527;SDS011;1778;47.966;7.854;2022-12-17T02:56:49;2.28;;;2.28;;
3527;SDS011;1778;47.966;7.854;2022-12-17T02:58:09;1.80;;;1.70;;
3527;SDS011;1778;47.966;7.854;2022-12-17T02:59:29;2.13;;;1.98;;
3527;SDS011;1778;47.966;7.854;2022-12-17T03:00:49;1.65;;;1.65;;
3527;SDS011;1778;47.966;7.854;2022-12-17T03:02:10;1.38;;;1.38;;
3527;SDS011;1778;47.966;7.854;2022-12-17T03:03:30;1.60;;;1.60;;
3527;SDS011;1778;47.966;7.854;2022-12-17T03:04:50;2.03;;;1.92;;
3527;SDS011;1778;47.966;7.854;2022-12-17T03:06:31;2.60;;;2.10;;
3527;SDS011;1778;47.966;7.854;2022-12-17T03:07:51;2.60;;;2.45;;
3527;SDS011;1778;47.966;7.854;2022-12-17T03:09:11;2.15;;;2.05;;
3527;SDS011;1778;47.966;7.854;2022-12-17T03:10:31;2.38;;;1.90;;
3527;SDS011;1778;47.966;7.854;2022-12-17T03:11:52;1.90;;;1.90;;
3527;SDS011;1778;47.966;7.854;2022-12-17T03:13:25;2.17;;;1.75;;
3527;SDS011;1778;47.966;7.854;2022-12-17T03:14:46;1.95;;;1.95;;
3527;SDS011;1778;47.966;7.854;2022-12-17T03:16:10;1.67;;;1.67;;
3527;SDS011;1778;47.966;7.854;2022-12-17T03:17:37;1.52;;;1.52;;
3527;SDS011;1778;47.966;7.854;2022-12-17T03:18:58;1.70;;;1.70;;
3527;SDS011;1778;47.966;7.854;2022-12-17T03:20:19;1.88;;;1.88;;
3527;SDS011;1778;47.966;7.854;2022-12-17T03:21:39;1.40;;;1.40;;
3527;SDS011;1778;47.966;7.854;2022-12-17T03:23:00;2.00;;;2.00;;
3527;SDS011;1778;47.966;7.854;2022-12-17T03:24:22;2.55;;;2.45;;
3527;SDS011;1778;47.966;7.854;2022-12-17T03:25:42;1.60;;;1.60;;
3527;SDS011;1778;47.966;7.854;2022-12-17T03:27:02;1.90;;;1.85;;
3527;SDS011;1778;47.966;7.854;2022-12-17T03:28:36;2.05;;;1.95;;
3527;SDS011;1778;47.966;7.854;2022-12-17T03:29:56;1.65;;;1.55;;
3527;SDS011;1778;47.966;7.854;2022-12-17T03:31:18;4.50;;;1.70;;
3527;SDS011;1778;47.966;7.854;2022-12-17T03:32:39;1.42;;;1.42;;
3527;SDS011;1778;47.966;7.854;2022-12-17T03:33:59;1.63;;;1.63;;
3527;SDS011;1778;47.966;7.854;2022-12-17T03:35:19;1.80;;;1.77;;
3527;SDS011;1778;47.966;7.854;2022-12-17T03:36:39;1.65;;;1.65;;
3527;SDS011;1778;47.966;7.854;2022-12-17T03:38:00;1.48;;;1.48;;
3527;SDS011;1778;47.966;7.854;2022-12-17T03:39:20;1.60;;;1.60;;
3527;SDS011;1778;47.966;7.854;2022-12-17T03:40:40;1.58;;;1.50;;
3527;SDS011;1778;47.966;7.854;2022-12-17T03:42:01;1.80;;;1.70;;
3527;SDS011;1778;47.966;7.854;2022-12-17T03:43:21;1.40;;;1.40;;
3527;SDS011;1778;47.966;7.854;2022-12-17T03:44:41;1.70;;;1.70;;
3527;SDS011;1778;47.966;7.854;2022-12-17T03:46:01;3.00;;;2.58;;
3527;SDS011;1778;47.966;7.854;2022-12-17T03:47:22;1.65;;;1.65;;
3527;SDS011;1778;47.966;7.854;2022-12-17T03:48:42;1.40;;;1.40;;
3527;SDS011;1778;47.966;7.854;2022-12-17T03:50:03;1.65;;;1.65;;
3527;SDS011;1778;47.966;7.854;2022-12-17T03:51:23;3.65;;;1.63;;
3527;SDS011;1778;47.966;7.854;2022-12-17T03:52:43;3.95;;;1.50;;
3527;SDS011;1778;47.966;7.854;2022-12-17T03:54:04;1.77;;;1.77;;
3527;SDS011;1778;47.966;7.854;2022-12-17T03:55:24;2.22;;;2.13;;
3527;SDS011;1778;47.966;7.854;2022-12-17T03:56:44;1.95;;;1.95;;
3527;SDS011;1778;47.966;7.854;2022-12-17T03:58:04;1.70;;;1.70;;
3527;SDS011;1778;47.966;7.854;2022-12-17T03:59:24;1.50;;;1.50;;
3527;SDS011;1778;47.966;7.854;2022-12-17T04:00:44;1.95;;;1.85;;
3527;SDS011;1778;47.966;7.854;2022-12-17T04:02:04;1.73;;;1.73;;
3527;SDS011;1778;47.966;7.854;2022-12-17T04:03:25;1.30;;;1.30;;
3527;SDS011;1778;47.966;7.854;2022-12-17T04:04:46;1.67;;;1.67;;
3527;SDS011;1778;47.966;7.854;2022-12-17T04:06:06;1.65;;;1.65;;
3527;SDS011;1778;47.966;7.854;2022-12-17T04:07:26;1.55;;;1.55;;
3527;SDS011;1778;47.966;7.854;2022-12-17T04:08:47;2.28;;;2.05;;
3527;SDS011;1778;47.966;7.854;2022-12-17T04:10:07;1.95;;;1.85;;
3527;SDS011;1778;47.966;7.854;2022-12-17T04:11:28;1.65;;;1.65;;
3527;SDS011;1778;47.966;7.854;2022-12-17T04:12:48;1.20;;;1.20;;
3527;SDS011;1778;47.966;7.854;2022-12-17T04:14:08;1.77;;;1.67;;
3527;SDS011;1778;47.966;7.854;2022-12-17T04:15:29;1.42;;;1.42;;
3527;SDS011;1778;47.966;7.854;2022-12-17T04:16:49;1.48;;;1.38;;
3527;SDS011;1778;47.966;7.854;2022-12-17T04:18:10;1.80;;;1.70;;
3527;SDS011;1778;47.966;7.854;2022-12-17T04:19:30;4.85;;;1.90;;
3527;SDS011;1778;47.966;7.854;2022-12-17T04:20:50;1.30;;;1.30;;
3527;SDS011;1778;47.966;7.854;2022-12-17T04:22:10;1.40;;;1.40;;
3527;SDS011;1778;47.966;7.854;2022-12-17T04:23:35;3.65;;;1.77;;
3527;SDS011;1778;47.966;7.854;2022-12-17T04:24:55;1.42;;;1.42;;
3527;SDS011;1778;47.966;7.854;2022-12-17T04:26:15;1.65;;;1.55;;
3527;SDS011;1778;47.966;7.854;2022-12-17T04:27:36;1.45;;;1.40;;
3527;SDS011;1778;47.966;7.854;2022-12-17T04:28:56;1.55;;;1.55;;
3527;SDS011;1778;47.966;7.854;2022-12-17T04:30:16;1.65;;;1.65;;
3527;SDS011;1778;47.966;7.854;2022-12-17T04:31:37;1.15;;;1.15;;
3527;SDS011;1778;47.966;7.854;2022-12-17T04:32:57;1.83;;;1.75;;
3527;SDS011;1778;47.966;7.854;2022-12-17T04:34:18;1.92;;;1.88;;
3527;SDS011;1778;47.966;7.854;2022-12-17T04:35:38;4.88;;;1.52;;
3527;SDS011;1778;47.966;7.854;2022-12-17T04:36:58;1.38;;;1.38;;
3527;SDS011;1778;47.966;7.854;2022-12-17T04:38:18;1.77;;;1.67;;
3527;SDS011;1778;47.966;7.854;2022-12-17T04:39:38;1.45;;;1.45;;
3527;SDS011;1778;47.966;7.854;2022-12-17T04:40:59;2.55;;;1.52;;
3527;SDS011;1778;47.966;7.854;2022-12-17T04:42:19;1.20;;;1.20;;
3527;SDS011;1778;47.966;7.854;2022-12-17T04:43:39;1.17;;;1.17;;
3527;SDS011;1778;47.966;7.854;2022-12-17T04:45:03;1.25;;;1.25;;
3527;SDS011;1778;47.966;7.854;2022-12-17T04:46:24;1.60;;;1.60;;
3527;SDS011;1778;47.966;7.854;2022-12-17T04:47:44;2.38;;;1.70;;
3527;SDS011;1778;47.966;7.854;2022-12-17T04:49:04;1.83;;;1.83;;
3527;SDS011;1778;47.966;7.854;2022-12-17T04:50:25;1.95;;;1.88;;
3527;SDS011;1778;47.966;7.854;2022-12-17T04:51:45;1.65;;;1.65;;
3527;SDS011;1778;47.966;7.854;2022-12-17T04:53:06;1.20;;;1.20;;
3527;SDS011;1778;47.966;7.854;2022-12-17T04:54:26;2.05;;;1.95;;
3527;SDS011;1778;47.966;7.854;2022-12-17T04:55:47;1.65;;;1.55;;
3527;SDS011;1778;47.966;7.854;2022-12-17T04:57:07;2.10;;;1.60;;
3527;SDS011;1778;47.966;7.854;2022-12-17T04:58:28;1.50;;;1.50;;
3527;SDS011;1778;47.966;7.854;2022-12-17T04:59:48;2.90;;;1.85;;
3527;SDS011;1778;47.966;7.854;2022-12-17T05:01:08;1.70;;;1.70;;
3527;SDS011;1778;47.966;7.854;2022-12-17T05:02:29;3.45;;;1.52;;
3527;SDS011;1778;47.966;7.854;2022-12-17T05:03:49;2.25;;;1.85;;
3527;SDS011;1778;47.966;7.854;2022-12-17T05:05:09;1.58;;;1.50;;
3527;SDS011;1778;47.966;7.854;2022-12-17T05:06:30;1.55;;;1.55;;
3527;SDS011;1778;47.966;7.854;2022-12-17T05:07:54;1.63;;;1.63;;
3527;SDS011;1778;47.966;7.854;2022-12-17T05:09:15;1.70;;;1.70;;
3527;SDS011;1778;47.966;7.854;2022-12-17T05:10:35;1.65;;;1.65;;
3527;SDS011;1778;47.966;7.854;2022-12-17T05:11:55;1.70;;;1.70;;
3527;SDS011;1778;47.966;7.854;2022-12-17T05:13:15;1.60;;;1.55;;
3527;SDS011;1778;47.966;7.854;2022-12-17T05:14:36;1.60;;;1.60;;
3527;SDS011;1778;47.966;7.854;2022-12-17T05:15:56;1.77;;;1.75;;
3527;SDS011;1778;47.966;7.854;2022-12-17T05:17:16;1.65;;;1.65;;
3527;SDS011;1778;47.966;7.854;2022-12-17T05:18:37;1.52;;;1.52;;
3527;SDS011;1778;47.966;7.854;2022-12-17T05:19:57;1.98;;;1.70;;
3527;SDS011;1778;47.966;7.854;2022-12-17T05:21:17;1.38;;;1.38;;
3527;SDS011;1778;47.966;7.854;2022-12-17T05:22:37;1.73;;;1.73;;
3527;SDS011;1778;47.966;7.854;2022-12-17T05:23:58;1.58;;;1.58;;
3527;SDS011;1778;47.966;7.854;2022-12-17T05:25:18;2.45;;;2.25;;
3527;SDS011;1778;47.966;7.854;2022-12-17T05:26:38;1.65;;;1.65;;
3527;SDS011;1778;47.966;7.854;2022-12-17T05:27:59;2.10;;;2.00;;
3527;SDS011;1778;47.966;7.854;2022-12-17T05:29:19;1.95;;;1.85;;
3527;SDS011;1778;47.966;7.854;2022-12-17T05:30:40;1.73;;;1.73;;
3527;SDS011;1778;47.966;7.854;2022-12-17T05:32:01;1.63;;;1.60;;
3527;SDS011;1778;47.966;7.854;2022-12-17T05:33:21;3.33;;;1.48;;
3527;SDS011;1778;47.966;7.854;2022-12-17T05:34:41;1.92;;;1.83;;
3527;SDS011;1778;47.966;7.854;2022-12-17T05:36:03;1.70;;;1.63;;
3527;SDS011;1778;47.966;7.854;2022-12-17T05:37:24;1.65;;;1.65;;
3527;SDS011;1778;47.966;7.854;2022-12-17T05:38:45;1.50;;;1.50;;
3527;SDS011;1778;47.966;7.854;2022-12-17T05:40:06;1.60;;;1.60;;
3527;SDS011;1778;47.966;7.854;2022-12-17T05:41:27;1.67;;;1.67;;
3527;SDS011;1778;47.966;7.854;2022-12-17T05:42:57;2.30;;;2.30;;
3527;SDS011;1778;47.966;7.854;2022-12-17T05:44:18;1.80;;;1.80;;
3527;SDS011;1778;47.966;7.854;2022-12-17T05:45:39;2.28;;;2.20;;
3527;SDS011;1778;47.966;7.854;2022-12-17T05:47:00;1.70;;;1.70;;
3527;SDS011;1778;47.966;7.854;2022-12-17T05:48:20;2.38;;;2.10;;
3527;SDS011;1778;47.966;7.854;2022-12-17T05:49:40;2.10;;;2.00;;
3527;SDS011;1778;47.966;7.854;2022-12-17T05:51:00;2.10;;;2.00;;
3527;SDS011;1778;47.966;7.854;2022-12-17T05:52:20;1.70;;;1.52;;
3527;SDS011;1778;47.966;7.854;2022-12-17T05:53:41;2.08;;;2.08;;
3527;SDS011;1778;47.966;7.854;2022-12-17T05:55:01;2.05;;;1.95;;
3527;SDS011;1778;47.966;7.854;2022-12-17T05:56:22;1.70;;;1.70;;
3527;SDS011;1778;47.966;7.854;2022-12-17T05:57:42;2.10;;;2.10;;
3527;SDS011;1778;47.966;7.854;2022-12-17T05:59:02;2.00;;;1.90;;
3527;SDS011;1778;47.966;7.854;2022-12-17T06:00:23;1.90;;;1.80;;
3527;SDS011;1778;47.966;7.854;2022-12-17T06:01:43;1.77;;;1.67;;
3527;SDS011;1778;47.966;7.854;2022-12-17T06:03:04;1.83;;;1.80;;
3527;SDS011;1778;47.966;7.854;2022-12-17T06:04:24;1.75;;;1.75;;
3527;SDS011;1778;47.966;7.854;2022-12-17T06:05:44;1.40;;;1.40;;
3527;SDS011;1778;47.966;7.854;2022-12-17T06:07:06;1.67;;;1.67;;
3527;SDS011;1778;47.966;7.854;2022-12-17T06:08:26;1.80;;;1.80;;
3527;SDS011;1778;47.966;7.854;2022-12-17T06:09:47;1.50;;;1.50;;
3527;SDS011;1778;47.966;7.854;2022-12-17T06:11:07;1.58;;;1.58;;
3527;SDS011;1778;47.966;7.854;2022-12-17T06:12:28;6.03;;;2.30;;
3527;SDS011;1778;47.966;7.854;2022-12-17T06:13:48;2.00;;;1.90;;
3527;SDS011;1778;47.966;7.854;2022-12-17T06:15:09;1.40;;;1.40;;
3527;SDS011;1778;47.966;7.854;2022-12-17T06:16:30;1.35;;;1.35;;
3527;SDS011;1778;47.966;7.854;2022-12-17T06:17:51;1.45;;;1.45;;
3527;SDS011;1778;47.966;7.854;2022-12-17T06:19:17;1.50;;;1.50;;
3527;SDS011;1778;47.966;7.854;2022-12-17T06:20:37;3.22;;;1.80;;
3527;SDS011;1778;47.966;7.854;2022-12-17T06:21:57;1.50;;;1.40;;
3527;SDS011;1778;47.966;7.854;2022-12-17T06:23:17;2.70;;;2.60;;
3527;SDS011;1778;47.966;7.854;2022-12-17T06:24:38;2.00;;;1.90;;
3527;SDS011;1778;47.966;7.854;2022-12-17T06:25:58;1.70;;;1.70;;
3527;SDS011;1778;47.966;7.854;2022-12-17T06:27:18;1.60;;;1.60;;
3527;SDS011;1778;47.966;7.854;2022-12-17T06:28:38;3.08;;;2.95;;
3527;SDS011;1778;47.966;7.854;2022-12-17T06:29:58;1.38;;;1.38;;
3527;SDS011;1778;47.966;7.854;2022-12-17T06:31:19;1.80;;;1.80;;
3527;SDS011;1778;47.966;7.854;2022-12-17T06:32:39;2.05;;;1.95;;
3527;SDS011;1778;47.966;7.854;2022-12-17T06:33:59;1.55;;;1.55;;
3527;SDS011;1778;47.966;7.854;2022-12-17T06:35:20;2.50;;;2.30;;
3527;SDS011;1778;47.966;7.854;2022-12-17T06:36:40;1.98;;;1.98;;
3527;SDS011;1778;47.966;7.854;2022-12-17T06:38:01;2.30;;;2.30;;
3527;SDS011;1778;47.966;7.854;2022-12-17T06:39:23;2.35;;;2.25;;
3527;SDS011;1778;47.966;7.854;2022-12-17T06:40:43;2.05;;;1.95;;
3527;SDS011;1778;47.966;7.854;2022-12-17T06:42:03;1.60;;;1.60;;
3527;SDS011;1778;47.966;7.854;2022-12-17T06:43:24;1.75;;;1.75;;
3527;SDS011;1778;47.966;7.854;2022-12-17T06:44:47;1.33;;;1.33;;
3527;SDS011;1778;47.966;7.854;2022-12-17T06:46:06;2.88;;;2.78;;
3527;SDS011;1778;47.966;7.854;2022-12-17T06:47:27;2.97;;;1.55;;
3527;SDS011;1778;47.966;7.854;2022-12-17T06:48:47;1.55;;;1.55;;
3527;SDS011;1778;47.966;7.854;2022-12-17T06:50:08;1.75;;;1.70;;
3527;SDS011;1778;47.966;7.854;2022-12-17T06:51:28;1.73;;;1.73;;
3527;SDS011;1778;47.966;7.854;2022-12-17T06:52:58;1.83;;;1.73;;
3527;SDS011;1778;47.966;7.854;2022-12-17T06:54:23;2.05;;;1.95;;
3527;SDS011;1778;47.966;7.854;2022-12-17T06:55:43;1.40;;;1.40;;
3527;SDS011;1778;47.966;7.854;2022-12-17T06:57:03;1.80;;;1.80;;
3527;SDS011;1778;47.966;7.854;2022-12-17T06:58:24;1.98;;;1.88;;
3527;SDS011;1778;47.966;7.854;2022-12-17T06:59:44;1.50;;;1.50;;
3527;SDS011;1778;47.966;7.854;2022-12-17T07:01:04;1.77;;;1.70;;
3527;SDS011;1778;47.966;7.854;2022-12-17T07:02:25;1.45;;;1.45;;
3527;SDS011;1778;47.966;7.854;2022-12-17T07:03:47;1.35;;;1.35;;
3527;SDS011;1778;47.966;7.854;2022-12-17T07:05:07;2.75;;;2.25;;
3527;SDS011;1778;47.966;7.854;2022-12-17T07:06:27;1.70;;;1.70;;
3527;SDS011;1778;47.966;7.854;2022-12-17T07:07:57;1.30;;;1.30;;
3527;SDS011;1778;47.966;7.854;2022-12-17T07:09:18;1.90;;;1.80;;
3527;SDS011;1778;47.966;7.854;2022-12-17T07:10:38;1.40;;;1.40;;
3527;SDS011;1778;47.966;7.854;2022-12-17T07:11:59;2.20;;;2.10;;
3527;SDS011;1778;47.966;7.854;2022-12-17T07:13:19;1.60;;;1.50;;
3527;SDS011;1778;47.966;7.854;2022-12-17T07:14:40;2.63;;;2.53;;
3527;SDS011;1778;47.966;7.854;2022-12-17T07:16:00;2.08;;;1.98;;
3527;SDS011;1778;47.966;7.854;2022-12-17T07:17:20;2.03;;;2.00;;
3527;SDS011;1778;47.966;7.854;2022-12-17T07:18:40;2.25;;;2.15;;
3527;SDS011;1778;47.966;7.854;2022-12-17T07:20:01;1.67;;;1.67;;
3527;SDS011;1778;47.966;7.854;2022-12-17T07:21:22;2.60;;;2.40;;
3527;SDS011;1778;47.966;7.854;2022-12-17T07:22:42;2.20;;;2.10;;
3527;SDS011;1778;47.966;7.854;2022-12-17T07:24:05;2.00;;;1.90;;
3527;SDS011;1778;47.966;7.854;2022-12-17T07:25:25;2.25;;;2.15;;
3527;SDS011;1778;47.966;7.854;2022-12-17T07:26:46;1.42;;;1.42;;
3527;SDS011;1778;47.966;7.854;2022-12-17T07:28:06;2.05;;;1.95;;
3527;SDS011;1778;47.966;7.854;2022-12-17T07:29:27;1.92;;;1.83;;
3527;SDS011;1778;47.966;7.854;2022-12-17T07:30:47;2.00;;;1.90;;
3527;SDS011;1778;47.966;7.854;2022-12-17T07:32:07;1.90;;;1.90;;
3527;SDS011;1778;47.966;7.854;2022-12-17T07:33:28;2.67;;;2.47;;
3527;SDS011;1778;47.966;7.854;2022-12-17T07:34:48;3.17;;;2.22;;
3527;SDS011;1778;47.966;7.854;2022-12-17T07:36:08;1.73;;;1.73;;
3527;SDS011;1778;47.966;7.854;2022-12-17T07:37:29;2.78;;;1.85;;
3527;SDS011;1778;47.966;7.854;2022-12-17T07:38:49;2.40;;;2.28;;
3527;SDS011;1778;47.966;7.854;2022-12-17T07:40:10;1.65;;;1.58;;
3527;SDS011;1778;47.966;7.854;2022-12-17T07:41:30;2.15;;;2.15;;
3527;SDS011;1778;47.966;7.854;2022-12-17T07:42:50;1.90;;;1.80;;
3527;SDS011;1778;47.966;7.854;2022-12-17T07:44:10;2.30;;;2.20;;
3527;SDS011;1778;47.966;7.854;2022-12-17T07:45:31;2.42;;;2.33;;
3527;SDS011;1778;47.966;7.854;2022-12-17T07:46:51;2.60;;;2.50;;
3527;SDS011;1778;47.966;7.854;2022-12-17T07:48:11;2.75;;;2.55;;
3527;SDS011;1778;47.966;7.854;2022-12-17T07:49:31;2.67;;;2.58;;
3527;SDS011;1778;47.966;7.854;2022-12-17T07:50:52;2.35;;;2.15;;
3527;SDS011;1778;47.966;7.854;2022-12-17T07:52:12;1.45;;;1.45;;
3527;SDS011;1778;47.966;7.854;2022-12-17T07:53:32;2.45;;;2.25;;
3527;SDS011;1778;47.966;7.854;2022-12-17T07:54:53;2.15;;;2.15;;
3527;SDS011;1778;47.966;7.854;2022-12-17T07:56:18;1.80;;;1.70;;
3527;SDS011;1778;47.966;7.854;2022-12-17T07:57:38;2.53;;;2.38;;
3527;SDS011;1778;47.966;7.854;2022-12-17T07:58:59;2.03;;;2.03;;
3527;SDS011;1778;47.966;7.854;2022-12-17T08:00:19;1.98;;;1.88;;
3527;SDS011;1778;47.966;7.854;2022-12-17T08:01:45;1.67;;;1.67;;
3527;SDS011;1778;47.966;7.854;2022-12-17T08:03:06;1.90;;;1.80;;
3527;SDS011;1778;47.966;7.854;2022-12-17T08:04:28;2.50;;;2.40;;
3527;SDS011;1778;47.966;7.854;2022-12-17T08:05:48;1.95;;;1.88;;
3527;SDS011;1778;47.966;7.854;2022-12-17T08:07:08;1.45;;;1.45;;
3527;SDS011;1778;47.966;7.854;2022-12-17T08:08:28;2.58;;;2.38;;
3527;SDS011;1778;47.966;7.854;2022-12-17T08:09:49;1.50;;;1.50;;
3527;SDS011;1778;47.966;7.854;2022-12-17T08:11:09;1.80;;;1.80;;
3527;SDS011;1778;47.966;7.854;2022-12-17T08:12:29;1.95;;;1.95;;
3527;SDS011;1778;47.966;7.854;2022-12-17T08:13:50;1.70;;;1.70;;
3527;SDS011;1778;47.966;7.854;2022-12-17T08:15:10;2.38;;;2.28;;
3527;SDS011;1778;47.966;7.854;2022-12-17T08:16:30;2.10;;;2.00;;
3527;SDS011;1778;47.966;7.854;2022-12-17T08:17:50;2.55;;;2.35;;
3527;SDS011;1778;47.966;7.854;2022-12-17T08:19:11;2.72;;;2.47;;
3527;SDS011;1778;47.966;7.854;2022-12-17T08:20:31;2.70;;;2.60;;
3527;SDS011;1778;47.966;7.854;2022-12-17T08:21:51;1.50;;;1.50;;
3527;SDS011;1778;47.966;7.854;2022-12-17T08:23:11;2.00;;;1.90;;
3527;SDS011;1778;47.966;7.854;2022-12-17T08:24:31;2.08;;;1.98;;
3527;SDS011;1778;47.966;7.854;2022-12-17T08:25:52;2.95;;;2.80;;
3527;SDS011;1778;47.966;7.854;2022-12-17T08:27:12;2.08;;;2.08;;
3527;SDS011;1778;47.966;7.854;2022-12-17T08:28:32;2.22;;;2.00;;
3527;SDS011;1778;47.966;7.854;2022-12-17T08:29:53;2.03;;;1.80;;
3527;SDS011;1778;47.966;7.854;2022-12-17T08:31:13;3.05;;;2.58;;
3527;SDS011;1778;47.966;7.854;2022-12-17T08:32:34;1.25;;;1.25;;